Nunoa, Chile
Current Conditions -  °F | °C
As of 10:00 PM on Saturday 22 Nov 2014 (Local Time) from SCEL Reporting Station
Scattered Clouds Scattered Clouds  
Wind Chill: 63°   Ceiling: Unl
Heat Index: 63°   Visibility: 6mi
Dew Point: 41°   Wind: 9mph
Humidity: 45%   Direction: 150°SSE
Pressure: 30"   Gusts: NA
Location:  33.47°S, 70.6°W
Report Text: SCEL 230200Z 15008KT 9999 SCT180 17/05 Q1016 NOSIG
Loading
Personal Weather Stations






























Interactive Weather Map New forecast layout! Learn more

10-Day Weather Forecast

Advertisements
Track Severe Weather on mobile